createdAt,value
2023-08-08T00:01:25.880Z,34.65
2023-08-08T00:03:52.633Z,34.76
2023-08-08T00:06:19.280Z,35.21
2023-08-08T00:08:45.922Z,35.47
2023-08-08T00:11:12.806Z,35.70
2023-08-08T00:13:42.583Z,35.68
2023-08-08T00:16:10.051Z,35.38
2023-08-08T00:18:38.851Z,35.40
2023-08-08T00:21:05.491Z,35.63
2023-08-08T00:23:32.110Z,35.62
2023-08-08T00:26:05.546Z,35.79
2023-08-08T00:28:36.727Z,36.07
2023-08-08T00:31:03.589Z,35.89
2023-08-08T00:33:30.462Z,35.92
2023-08-08T00:36:01.661Z,35.69
2023-08-08T00:38:28.778Z,36.03
2023-08-08T00:40:55.656Z,35.70
2023-08-08T00:43:22.466Z,35.70
2023-08-08T00:45:49.165Z,35.27
2023-08-08T00:48:19.418Z,35.94
2023-08-08T00:50:51.352Z,35.30
2023-08-08T00:53:27.914Z,35.12
2023-08-08T00:56:01.664Z,35.29
2023-08-08T00:58:28.892Z,35.12
2023-08-08T01:01:02.069Z,35.06
2023-08-08T01:03:35.181Z,35.77
2023-08-08T01:06:14.720Z,35.13
2023-08-08T01:08:52.274Z,35.40
2023-08-08T01:11:19.134Z,35.54
2023-08-08T01:13:49.602Z,35.51
2023-08-08T01:16:22.874Z,35.18
2023-08-08T01:18:51.413Z,35.71
2023-08-08T01:21:18.401Z,35.86
2023-08-08T01:23:55.893Z,35.42
2023-08-08T01:26:28.088Z,35.50
2023-08-08T01:28:55.618Z,35.21
2023-08-08T01:31:22.467Z,35.36
2023-08-08T01:33:49.500Z,35.66
2023-08-08T01:36:31.853Z,36.07
2023-08-08T01:39:09.227Z,35.77
2023-08-08T01:41:39.922Z,35.86
2023-08-08T01:44:07.786Z,35.88
2023-08-08T01:46:38.874Z,35.91
2023-08-08T01:49:07.307Z,35.89
2023-08-08T01:51:36.934Z,35.84
2023-08-08T01:54:04.193Z,35.88
2023-08-08T01:56:30.913Z,35.98
2023-08-08T01:58:57.973Z,36.40
2023-08-08T02:01:24.761Z,36.43
2023-08-08T02:03:53.409Z,36.27
2023-08-08T02:06:24.566Z,36.35
2023-08-08T02:08:53.374Z,36.56
2023-08-08T02:11:20.172Z,36.10
2023-08-08T02:13:47.071Z,35.94
2023-08-08T02:16:13.700Z,35.88
2023-08-08T02:18:42.082Z,36.09
2023-08-08T02:21:09.606Z,36.13
2023-08-08T02:23:39.573Z,36.55
2023-08-08T02:26:06.378Z,36.82
2023-08-08T02:28:37.901Z,36.85
2023-08-08T02:31:14.411Z,36.52
2023-08-08T02:33:41.283Z,36.51
2023-08-08T02:36:07.924Z,36.78
2023-08-08T02:38:34.537Z,37.11
2023-08-08T02:41:01.194Z,37.12
2023-08-08T02:43:28.878Z,36.85
2023-08-08T02:45:55.561Z,36.70
2023-08-08T02:48:25.497Z,36.97
2023-08-08T02:50:52.538Z,36.93
2023-08-08T02:53:19.486Z,36.92
2023-08-08T02:55:46.263Z,36.71
2023-08-08T02:58:13.088Z,37.14
2023-08-08T03:00:39.848Z,37.14
2023-08-08T03:03:06.570Z,37.15
2023-08-08T03:05:33.254Z,36.67
2023-08-08T03:08:04.542Z,36.66
2023-08-08T03:10:31.190Z,36.06
2023-08-08T03:12:57.860Z,36.46
2023-08-08T03:15:24.672Z,36.25
2023-08-08T03:17:51.759Z,36.19
2023-08-08T03:20:18.713Z,35.95
2023-08-08T03:22:46.025Z,36.19
2023-08-08T03:25:16.115Z,36.07
2023-08-08T03:27:43.129Z,36.09
2023-08-08T03:30:12.736Z,35.98
2023-08-08T03:32:40.662Z,36.38
2023-08-08T03:35:07.638Z,36.33
2023-08-08T03:37:34.786Z,36.35
2023-08-08T03:40:01.763Z,36.35
2023-08-08T03:42:28.616Z,37.07
2023-08-08T03:44:55.463Z,36.81
2023-08-08T03:47:26.066Z,37.24
2023-08-08T03:49:56.268Z,37.40
2023-08-08T03:52:23.140Z,37.50
2023-08-08T03:54:50.101Z,36.66
2023-08-08T03:57:21.657Z,36.68
2023-08-08T03:59:48.264Z,36.94
2023-08-08T04:02:15.122Z,36.80
2023-08-08T04:04:42.186Z,36.86
2023-08-08T04:07:08.915Z,36.80
2023-08-08T04:09:38.816Z,37.26
2023-08-08T04:12:05.770Z,36.46
2023-08-08T04:14:33.926Z,36.86
2023-08-08T04:17:00.837Z,36.89
2023-08-08T04:19:27.727Z,37.13
2023-08-08T04:21:54.504Z,37.08
2023-08-08T04:24:21.269Z,37.41
2023-08-08T04:26:48.057Z,37.42
2023-08-08T04:29:17.755Z,37.64
2023-08-08T04:31:44.746Z,37.94
2023-08-08T04:34:11.552Z,38.23
2023-08-08T04:36:38.574Z,39.07
2023-08-08T04:39:05.338Z,38.44
2023-08-08T04:41:31.970Z,38.38
2023-08-08T04:43:58.604Z,37.92
2023-08-08T04:46:33.991Z,37.85
2023-08-08T04:49:08.129Z,37.94
2023-08-08T04:51:34.959Z,39.15
2023-08-08T04:54:04.490Z,38.87
2023-08-08T04:56:31.227Z,39.07
2023-08-08T04:58:58.732Z,39.22
2023-08-08T05:01:25.438Z,38.34
2023-08-08T05:03:53.858Z,38.89
2023-08-08T05:06:23.429Z,39.08
2023-08-08T05:08:52.668Z,39.36
2023-08-08T05:11:19.827Z,39.33
2023-08-08T05:13:46.745Z,40.45
2023-08-08T05:16:13.586Z,40.67
2023-08-08T05:18:46.580Z,41.36
2023-08-08T05:21:13.513Z,41.20
2023-08-08T05:23:40.511Z,40.32
2023-08-08T05:26:07.456Z,41.40
2023-08-08T05:28:34.368Z,39.82
2023-08-08T05:31:01.212Z,40.14
2023-08-08T05:33:28.004Z,39.93
2023-08-08T05:35:59.062Z,41.00
2023-08-08T05:38:31.260Z,40.81
2023-08-08T05:40:57.994Z,41.19
2023-08-08T05:43:25.193Z,41.29
2023-08-08T05:45:55.068Z,40.50
2023-08-08T05:48:21.815Z,40.94
2023-08-08T05:50:53.174Z,40.64
2023-08-08T05:53:20.064Z,41.87
2023-08-08T05:55:46.820Z,42.01
2023-08-08T05:58:17.007Z,42.12
2023-08-08T06:00:45.068Z,41.04
2023-08-08T06:03:12.002Z,40.42
2023-08-08T06:05:38.760Z,39.75
2023-08-08T06:08:08.326Z,39.02
2023-08-08T06:10:36.261Z,40.48
2023-08-08T06:13:07.619Z,39.39
2023-08-08T06:15:34.817Z,39.25
2023-08-08T06:18:02.730Z,38.76
2023-08-08T06:20:30.293Z,39.46
2023-08-08T06:22:58.587Z,40.11
2023-08-08T06:25:25.580Z,41.34
2023-08-08T06:27:53.400Z,41.83
2023-08-08T06:30:27.557Z,42.23
2023-08-08T06:32:56.577Z,42.31
2023-08-08T06:35:26.355Z,42.54
2023-08-08T06:37:53.428Z,42.14
2023-08-08T06:40:20.099Z,41.38
2023-08-08T06:42:47.090Z,41.74
2023-08-08T06:45:15.070Z,40.82
2023-08-08T06:47:41.935Z,40.97
2023-08-08T06:50:18.452Z,40.90
2023-08-08T06:52:46.602Z,40.37
2023-08-08T06:55:13.695Z,40.68
2023-08-08T06:57:48.860Z,38.55
2023-08-08T07:00:17.539Z,36.90
2023-08-08T07:02:48.225Z,36.48
2023-08-08T07:05:15.458Z,35.58
2023-08-08T07:07:42.405Z,35.93
2023-08-08T07:10:13.003Z,36.21
2023-08-08T07:12:39.814Z,35.77
2023-08-08T07:15:08.604Z,35.30
2023-08-08T07:17:35.679Z,34.27
2023-08-08T07:20:03.347Z,33.93
2023-08-08T07:22:30.084Z,33.95
2023-08-08T07:24:56.885Z,34.75
2023-08-08T07:27:29.423Z,34.52
2023-08-08T07:30:04.340Z,34.79
2023-08-08T07:32:33.249Z,34.25
2023-08-08T07:35:02.672Z,33.48
2023-08-08T07:37:29.614Z,33.25
2023-08-08T07:39:58.771Z,33.57
2023-08-08T07:42:37.709Z,33.25
2023-08-08T07:45:05.331Z,32.91
2023-08-08T07:47:32.027Z,33.15
2023-08-08T07:49:59.026Z,32.90
2023-08-08T07:52:25.823Z,33.28
2023-08-08T07:54:52.712Z,32.89
2023-08-08T07:57:21.540Z,32.88
2023-08-08T07:59:53.368Z,33.21
2023-08-08T08:02:29.053Z,33.11
2023-08-08T08:04:56.142Z,33.24
2023-08-08T08:07:23.285Z,33.33
2023-08-08T08:09:58.549Z,33.94
2023-08-08T08:12:25.465Z,33.62
2023-08-08T08:14:52.200Z,32.86
2023-08-08T08:17:21.655Z,33.55
2023-08-08T08:19:50.567Z,33.62
2023-08-08T08:22:17.449Z,33.10
2023-08-08T08:24:47.327Z,33.17
2023-08-08T08:27:14.555Z,32.69
2023-08-08T08:29:41.510Z,32.96
2023-08-08T08:32:08.513Z,32.37
2023-08-08T08:34:35.226Z,32.09
2023-08-08T08:37:03.498Z,32.27
2023-08-08T08:39:30.316Z,32.00
2023-08-08T08:42:06.336Z,31.18
2023-08-08T08:44:33.677Z,31.73
2023-08-08T08:47:05.440Z,32.34
2023-08-08T08:49:36.579Z,31.91
2023-08-08T08:52:06.173Z,32.37
2023-08-08T08:54:36.790Z,32.17
2023-08-08T08:57:06.478Z,31.75
2023-08-08T08:59:33.853Z,31.40
2023-08-08T09:02:01.448Z,30.99
2023-08-08T09:04:30.390Z,31.53
2023-08-08T09:06:59.091Z,30.88
2023-08-08T09:09:26.083Z,30.86
2023-08-08T09:11:57.314Z,31.09
2023-08-08T09:14:24.831Z,31.21
2023-08-08T09:16:54.474Z,30.92
2023-08-08T09:19:22.687Z,30.52
2023-08-08T09:21:51.139Z,30.79
2023-08-08T09:24:18.673Z,30.80
2023-08-08T09:26:46.287Z,29.73
2023-08-08T09:29:16.003Z,30.09
2023-08-08T09:31:42.866Z,30.16
2023-08-08T09:34:10.361Z,30.16
2023-08-08T09:36:38.071Z,30.21
2023-08-08T09:39:09.269Z,30.04
2023-08-08T09:41:47.293Z,29.39
2023-08-08T09:44:14.524Z,29.47
2023-08-08T09:46:41.513Z,29.08
2023-08-08T09:49:14.111Z,29.08
2023-08-08T09:51:41.395Z,28.90
2023-08-08T09:54:09.288Z,29.01
2023-08-08T09:56:37.222Z,28.40
2023-08-08T09:59:06.684Z,27.75
2023-08-08T10:01:34.093Z,28.12
2023-08-08T10:04:01.149Z,27.89
2023-08-08T10:06:27.947Z,28.07
2023-08-08T10:08:58.298Z,28.09
2023-08-08T10:11:26.360Z,27.98
2023-08-08T10:13:56.259Z,27.39
2023-08-08T10:16:24.700Z,27.17
2023-08-08T10:19:04.888Z,26.67
2023-08-08T10:21:44.246Z,26.76
2023-08-08T10:24:14.775Z,26.82
2023-08-08T10:27:01.687Z,25.90
2023-08-08T10:29:32.341Z,26.63
2023-08-08T10:32:06.894Z,26.49
2023-08-08T10:34:50.642Z,26.90
2023-08-08T10:37:25.554Z,26.23
2023-08-08T10:39:58.778Z,26.15
2023-08-08T10:42:30.236Z,25.72
2023-08-08T10:44:59.422Z,25.62
2023-08-08T10:47:43.080Z,25.74
2023-08-08T10:50:12.812Z,25.13
2023-08-08T10:52:54.011Z,24.78
2023-08-08T10:55:24.796Z,24.76
2023-08-08T10:58:09.642Z,25.22
2023-08-08T11:00:46.521Z,24.78
2023-08-08T11:03:13.783Z,25.16
2023-08-08T11:05:47.902Z,24.99
2023-08-08T11:08:16.199Z,24.76
2023-08-08T11:10:45.777Z,24.48
2023-08-08T11:13:13.003Z,24.21
2023-08-08T11:15:40.502Z,23.97
2023-08-08T11:18:18.435Z,23.23
2023-08-08T11:20:48.037Z,23.06
2023-08-08T11:23:15.674Z,22.28
2023-08-08T11:25:47.080Z,22.50
2023-08-08T11:28:17.546Z,22.90
2023-08-08T11:30:47.945Z,23.16
2023-08-08T11:33:16.512Z,23.31
2023-08-08T11:35:49.533Z,21.93
2023-08-08T11:38:24.269Z,22.36
2023-08-08T11:40:56.857Z,22.20
2023-08-08T11:43:23.933Z,22.15
2023-08-08T11:45:50.783Z,21.34
2023-08-08T11:48:17.706Z,21.18
2023-08-08T11:50:45.855Z,20.38
2023-08-08T11:53:14.809Z,21.11
2023-08-08T11:55:42.484Z,20.78
2023-08-08T11:58:14.838Z,20.75
2023-08-08T12:00:49.388Z,20.77
2023-08-08T12:03:22.817Z,20.33
2023-08-08T12:05:50.141Z,19.49
2023-08-08T12:08:25.272Z,19.28
2023-08-08T12:10:58.148Z,19.44
2023-08-08T12:13:30.025Z,19.11
2023-08-08T12:18:31.629Z,19.35
2023-08-08T12:20:58.455Z,19.38
2023-08-08T12:23:28.308Z,19.09
2023-08-08T12:25:55.099Z,19.00
2023-08-08T12:28:21.930Z,19.06
2023-08-08T12:30:48.630Z,18.99
2023-08-08T12:33:15.554Z,18.40
2023-08-08T12:35:42.530Z,18.26
2023-08-08T12:38:11.440Z,18.42
2023-08-08T12:40:38.647Z,18.38
2023-08-08T12:43:05.348Z,18.35
2023-08-08T12:45:32.153Z,18.34
2023-08-08T12:47:59.051Z,17.93
2023-08-08T12:50:25.927Z,17.76
2023-08-08T12:52:52.721Z,17.81
2023-08-08T12:55:20.958Z,17.74
2023-08-08T12:57:56.957Z,17.17
2023-08-08T13:00:31.538Z,17.00
2023-08-08T13:03:05.952Z,17.14
2023-08-08T13:05:32.752Z,17.67
2023-08-08T13:08:03.615Z,16.37
2023-08-08T13:10:32.035Z,17.03
2023-08-08T13:13:06.273Z,17.27
2023-08-08T13:15:37.194Z,16.79
2023-08-08T13:18:07.910Z,16.38
2023-08-08T13:20:34.819Z,16.30
2023-08-08T13:23:01.546Z,15.55
2023-08-08T13:25:35.466Z,15.88
2023-08-08T13:28:04.330Z,15.86
2023-08-08T13:30:31.577Z,15.51
2023-08-08T13:33:00.718Z,15.93
2023-08-08T13:35:29.126Z,15.54
2023-08-08T13:37:56.019Z,15.47
2023-08-08T13:40:22.728Z,15.47
2023-08-08T13:42:53.390Z,15.42
2023-08-08T13:45:21.589Z,15.98
2023-08-08T13:47:51.834Z,16.49
2023-08-08T13:50:22.562Z,16.64
2023-08-08T13:52:49.656Z,17.22
2023-08-08T13:55:16.584Z,17.26
2023-08-08T13:57:47.219Z,17.49
2023-08-08T14:00:13.962Z,17.47
2023-08-08T14:02:40.754Z,17.45
2023-08-08T14:05:08.078Z,17.70
2023-08-08T14:07:36.569Z,17.37
2023-08-08T14:10:05.049Z,17.39
2023-08-08T14:12:32.136Z,17.82
2023-08-08T14:14:58.968Z,17.91
2023-08-08T14:17:25.834Z,18.26
2023-08-08T14:19:55.120Z,18.48
2023-08-08T14:22:25.049Z,18.49
2023-08-08T14:24:51.738Z,18.83
2023-08-08T14:27:18.822Z,18.87
2023-08-08T14:29:45.627Z,18.76
2023-08-08T14:32:12.395Z,18.64
2023-08-08T14:34:42.244Z,18.76
2023-08-08T14:37:09.137Z,19.14
2023-08-08T14:39:43.982Z,19.68
2023-08-08T14:42:10.805Z,19.36
2023-08-08T14:44:37.595Z,19.73
2023-08-08T14:47:05.034Z,19.27
2023-08-08T14:49:32.031Z,19.69
2023-08-08T14:51:59.527Z,19.77
2023-08-08T14:54:26.675Z,20.30
2023-08-08T14:56:53.534Z,19.65
2023-08-08T14:59:20.480Z,19.60
2023-08-08T15:01:47.706Z,19.32
2023-08-08T15:04:14.653Z,19.97
2023-08-08T15:06:42.009Z,19.91
2023-08-08T15:09:14.833Z,19.46
2023-08-08T15:11:41.921Z,20.01
2023-08-08T15:14:08.876Z,19.96
2023-08-08T15:16:36.657Z,20.35
2023-08-08T15:19:03.835Z,20.30
2023-08-08T15:21:30.746Z,20.33
2023-08-08T15:23:58.845Z,20.03
2023-08-08T15:26:28.271Z,20.17
2023-08-08T15:28:58.318Z,20.12
2023-08-08T15:31:25.170Z,20.55
2023-08-08T15:33:55.428Z,20.51
2023-08-08T15:36:23.997Z,20.26
2023-08-08T15:38:56.123Z,20.84
2023-08-08T15:41:22.965Z,20.59
2023-08-08T15:43:50.200Z,20.96
2023-08-08T15:46:18.991Z,20.88
2023-08-08T15:48:45.807Z,21.02
2023-08-08T15:51:18.302Z,21.30
2023-08-08T15:53:45.043Z,21.29
2023-08-08T15:56:19.797Z,20.51
2023-08-08T15:58:54.686Z,20.68
2023-08-08T16:01:27.413Z,20.81
2023-08-08T16:03:54.393Z,20.76
2023-08-08T16:06:25.298Z,20.88
2023-08-08T16:08:53.082Z,20.47
2023-08-08T16:11:19.871Z,20.88
2023-08-08T16:13:49.750Z,20.80
2023-08-08T16:16:16.469Z,20.81
2023-08-08T16:18:43.632Z,20.80
2023-08-08T16:21:10.551Z,21.16
2023-08-08T16:23:37.328Z,20.64
2023-08-08T16:26:06.634Z,21.06
2023-08-08T16:28:39.768Z,21.21
2023-08-08T16:31:11.641Z,20.98
2023-08-08T16:33:41.646Z,21.35
2023-08-08T16:36:09.509Z,21.18
2023-08-08T16:38:37.640Z,21.70
2023-08-08T16:41:04.775Z,21.21
2023-08-08T16:43:34.022Z,21.13
2023-08-08T16:46:07.368Z,21.21
2023-08-08T16:48:34.159Z,21.19
2023-08-08T16:51:00.868Z,21.27
2023-08-08T16:53:27.576Z,21.41
2023-08-08T16:55:54.556Z,21.38
2023-08-08T16:58:21.843Z,21.58
2023-08-08T17:03:23.600Z,21.93
2023-08-08T17:05:50.268Z,21.64
2023-08-08T17:08:16.889Z,21.84
2023-08-08T17:10:43.732Z,21.75
2023-08-08T17:13:10.443Z,21.61
2023-08-08T17:15:37.254Z,22.12
2023-08-08T17:18:07.140Z,22.07
2023-08-08T17:20:34.145Z,22.32
2023-08-08T17:23:00.850Z,22.39
2023-08-08T17:25:27.872Z,22.25
2023-08-08T17:27:54.594Z,22.48
2023-08-08T17:30:22.709Z,22.85
2023-08-08T17:32:50.557Z,23.21
2023-08-08T17:35:17.405Z,23.73
2023-08-08T17:37:44.221Z,29.02
2023-08-08T17:40:11.299Z,31.26
2023-08-08T17:42:38.541Z,31.78
2023-08-08T17:45:06.061Z,32.39
2023-08-08T17:47:32.931Z,33.38
2023-08-08T17:50:01.746Z,33.55
2023-08-08T17:52:28.386Z,33.86
2023-08-08T17:54:59.833Z,34.42
2023-08-08T17:57:30.819Z,34.38
2023-08-08T18:00:05.775Z,33.98
2023-08-08T18:02:32.588Z,34.27
2023-08-08T18:04:59.590Z,34.99
2023-08-08T18:07:29.362Z,34.88
2023-08-08T18:09:57.413Z,34.85
2023-08-08T18:12:24.278Z,35.44
2023-08-08T18:14:55.099Z,35.44
2023-08-08T18:17:28.832Z,36.18
2023-08-08T18:19:58.509Z,36.01
2023-08-08T18:22:34.372Z,36.43
2023-08-08T18:25:01.201Z,36.52
2023-08-08T18:27:28.138Z,36.45
2023-08-08T18:29:55.900Z,36.37
2023-08-08T18:32:22.763Z,36.27
2023-08-08T18:34:52.242Z,36.27
2023-08-08T18:37:18.951Z,36.67
2023-08-08T18:39:45.999Z,36.87
2023-08-08T18:42:12.628Z,36.93
2023-08-08T18:44:42.642Z,37.61
2023-08-08T18:47:20.239Z,37.65
2023-08-08T18:49:50.422Z,37.92
2023-08-08T18:52:17.715Z,37.96
2023-08-08T18:54:44.331Z,37.84
2023-08-08T18:57:11.082Z,37.79
2023-08-08T18:59:46.667Z,38.18
2023-08-08T19:02:18.737Z,38.48
2023-08-08T19:04:48.252Z,38.31
2023-08-08T19:07:15.049Z,38.45
2023-08-08T19:09:47.476Z,38.62
2023-08-08T19:12:14.484Z,39.00
2023-08-08T19:14:41.354Z,39.16
2023-08-08T19:17:08.158Z,39.31
2023-08-08T19:19:37.598Z,39.25
2023-08-08T19:22:12.003Z,39.83
2023-08-08T19:24:39.194Z,39.46
2023-08-08T19:27:07.416Z,39.88
2023-08-08T19:29:34.189Z,39.80
2023-08-08T19:32:02.449Z,40.20
2023-08-08T19:34:29.447Z,40.11
2023-08-08T19:36:59.365Z,40.48
2023-08-08T19:39:26.372Z,40.57
2023-08-08T19:41:53.194Z,40.68
2023-08-08T19:44:20.275Z,40.08
2023-08-08T19:46:53.006Z,40.50
2023-08-08T19:49:19.975Z,40.69
2023-08-08T19:51:48.108Z,40.82
2023-08-08T19:54:18.599Z,41.26
2023-08-08T19:56:46.209Z,41.34
2023-08-08T19:59:16.039Z,41.30
2023-08-08T20:01:42.843Z,41.05
2023-08-08T20:04:10.063Z,41.47
2023-08-08T20:06:40.086Z,41.51
2023-08-08T20:09:07.323Z,41.77
2023-08-08T20:11:44.251Z,42.14
2023-08-08T20:14:11.358Z,42.13
2023-08-08T20:16:38.176Z,42.10
2023-08-08T20:19:05.606Z,42.41
2023-08-08T20:21:33.610Z,42.63
2023-08-08T20:24:00.475Z,42.85
2023-08-08T20:26:27.756Z,42.92
2023-08-08T20:28:54.634Z,42.62
2023-08-08T20:31:26.633Z,43.01
2023-08-08T20:34:02.779Z,43.38
2023-08-08T20:36:36.973Z,43.88
2023-08-08T20:39:05.678Z,43.75
2023-08-08T20:41:40.561Z,43.20
2023-08-08T20:44:08.196Z,43.76
2023-08-08T20:46:38.250Z,43.41
2023-08-08T20:49:08.475Z,44.27
2023-08-08T20:51:50.967Z,44.26
2023-08-08T20:54:18.434Z,44.38
2023-08-08T20:57:00.711Z,44.89
2023-08-08T20:59:30.193Z,44.66
2023-08-08T21:02:00.050Z,44.66
2023-08-08T21:04:27.503Z,43.96
2023-08-08T21:06:55.014Z,44.11
2023-08-08T21:09:24.948Z,44.27
2023-08-08T21:11:52.313Z,44.35
2023-08-08T21:14:19.148Z,44.43
2023-08-08T21:16:55.077Z,43.92
2023-08-08T21:19:29.692Z,44.01
2023-08-08T21:21:57.458Z,43.78
2023-08-08T21:24:27.478Z,43.94
2023-08-08T21:26:54.863Z,44.32
2023-08-08T21:29:22.084Z,43.15
2023-08-08T21:31:52.369Z,43.87
2023-08-08T21:34:19.107Z,41.55
2023-08-08T21:36:46.069Z,40.49
2023-08-08T21:39:12.851Z,39.73
2023-08-08T21:41:40.061Z,38.44
2023-08-08T21:44:07.148Z,37.39
2023-08-08T21:46:33.982Z,37.50
2023-08-08T21:49:02.075Z,37.14
2023-08-08T21:51:29.475Z,36.46
2023-08-08T21:53:56.497Z,35.87
2023-08-08T21:56:23.398Z,35.80
2023-08-08T21:58:56.604Z,35.53
2023-08-08T22:01:23.712Z,35.38
2023-08-08T22:03:51.706Z,35.43
2023-08-08T22:06:18.959Z,35.77
2023-08-08T22:08:46.334Z,35.54
2023-08-08T22:11:13.999Z,35.43
2023-08-08T22:13:41.410Z,35.62
2023-08-08T22:16:16.134Z,35.57
2023-08-08T22:18:43.249Z,35.76
2023-08-08T22:21:11.597Z,35.55
2023-08-08T22:23:38.789Z,35.50
2023-08-08T22:26:05.636Z,35.13
2023-08-08T22:28:36.428Z,35.22
2023-08-08T22:31:03.799Z,35.14
2023-08-08T22:33:33.880Z,35.38
2023-08-08T22:36:01.896Z,35.67
2023-08-08T22:38:33.342Z,35.50
2023-08-08T22:41:04.208Z,35.61
2023-08-08T22:43:31.086Z,35.67
2023-08-08T22:45:57.818Z,35.37
2023-08-08T22:48:24.818Z,35.42
2023-08-08T22:50:54.702Z,35.80
2023-08-08T22:53:30.609Z,35.46
2023-08-08T22:55:57.698Z,35.49
2023-08-08T22:58:24.460Z,35.74
2023-08-08T23:00:51.719Z,35.55
2023-08-08T23:03:19.576Z,35.33
2023-08-08T23:05:47.706Z,35.12
2023-08-08T23:08:29.342Z,35.03
2023-08-08T23:10:57.946Z,35.52
2023-08-08T23:13:25.153Z,35.51
2023-08-08T23:15:52.270Z,35.56
2023-08-08T23:18:19.439Z,35.90
2023-08-08T23:20:49.090Z,36.15
2023-08-08T23:23:17.048Z,36.08
2023-08-08T23:25:43.949Z,36.05
2023-08-08T23:28:18.693Z,36.27
2023-08-08T23:30:47.899Z,36.02
2023-08-08T23:33:18.262Z,35.94
2023-08-08T23:35:45.910Z,35.85
2023-08-08T23:38:12.850Z,35.41
2023-08-08T23:40:45.658Z,35.09
2023-08-08T23:43:12.390Z,34.84
2023-08-08T23:45:39.314Z,35.59
2023-08-08T23:48:06.285Z,35.26
2023-08-08T23:50:33.212Z,35.60
2023-08-08T23:52:59.984Z,36.47
2023-08-08T23:55:37.660Z,35.22
2023-08-08T23:58:12.839Z,36.95
